Weather Models
Both GFS & NAM
00z 06z 12z 18z
24hr Precip
00z 06z 12z 18z
36hr Simulated radar
00z 06z 12z 18z
SKEWT Soundings
00z 12z
Current Conditions (Updated 4:35am on 7/28/17)
Temperature
 74°
-0.11
76°  
74°  
0
10
20
30
40
50
60
70
80
90
100
Dew Point
70°
70°  
69°  
-20
-10
0
10
20
30
40
50
60
70
80
Heat Index
79°
81°  
79°  
30
40
50
60
70
80
90
100
110
120
130
Heat Index
Humidity
87%
87% 
81% 
0
10
20
30
40
50
60
70
80
90
100
Barometer
29.84
   Steady
29.87  
29.84  
28.00
28.30
28.60
28.90
29.20
29.50
29.80
30.10
30.40
30.70
31.00
Temperature
Dew Point
Humidity
Pressure
Wind
0mph
 NE
Daily Rain
.00
.05
.10
.15
.20
.25
.30
.35
.40
.45
.50
Rain Today
 0.00" 
Month Rain
0.00
0.50
1.00
1.50
2.00
2.50
3.00
3.50
4.00
4.50
5.00
Month Rain
 4.91" 
Year Rain
0.00
5.00
10.00
15.00
20.00
25.00
30.00
35.00
40.00
45.00
50.00
Year Rain
 25.01" 
Sun & Moon Data
Sunrise 5:57am
Sunset 8:19pm
Moonrise 11:34am
Moonset 11:38pm
Moon % 26%
Other Rain Data
Past Hour 0.00 Past 24 Hours 0.00
Past 3 Hours 0.00 Past 7 Days 0.71
Past 6 Hours 0.00
Cloud Height
1028


Current Front Map
Current Satellite map
7 Day Forecast
NWS Forecast for Philadelphia PA
National Weather Service Forecast for: Philadelphia PA
Issued by: National Weather Service Philadelphia, PA
Updated: 3:34 am EDT Jul 28, 2017

Philadelphia
 
Today

Today: A slight chance of showers, then a chance of showers and thunderstorms after 2pm.  Patchy fog before 10am.  Otherwise, increasing clouds, with a high near 85. East wind 5 to 8 mph.  Chance of precipitation is 30%. New rainfall amounts of less than a tenth of an inch, except higher amounts possible in thunderstorms.
Patchy Fog
then Chance
Showers
Tonight

Tonight: A chance of showers and thunderstorms, then showers and possibly a thunderstorm after 10pm. Some of the storms could produce heavy rain.  Low around 69. East wind 8 to 13 mph.  Chance of precipitation is 90%. New rainfall amounts between 1 and 2 inches possible.
Heavy Rain

Saturday

Saturday: Rain. The rain could be heavy at times.  High near 73. Northeast wind 15 to 18 mph.  Chance of precipitation is 90%. New precipitation amounts between a half and three quarters of an inch possible.
Heavy Rain

Saturday
Night
Saturday Night: Rain likely before 8pm, then a chance of showers after 8pm. The rain could be heavy at times.  Mostly cloudy, with a low around 63. Northeast wind 13 to 16 mph.  Chance of precipitation is 60%. New precipitation amounts between a tenth and quarter of an inch possible.
Heavy Rain

Sunday

Sunday: Partly sunny, with a high near 79. Northeast wind 11 to 14 mph.
Partly Sunny

Sunday
Night
Sunday Night: Mostly cloudy, with a low around 64.
Mostly Cloudy

Monday

Monday: Partly sunny, with a high near 81.
Partly Sunny

Monday
Night
Monday Night: Partly cloudy, with a low around 66.
Partly Cloudy

Tuesday

Tuesday: Mostly sunny, with a high near 86.
Mostly Sunny

Hi 85 °F Lo 69 °F Hi 73 °F Lo 63 °F Hi 79 °F Lo 64 °F Hi 81 °F Lo 66 °F Hi 86 °F

Flash Flood Watch
Hazardous Weather Outlook
 

Today
 
A slight chance of showers, then a chance of showers and thunderstorms after 2pm. Patchy fog before 10am. Otherwise, increasing clouds, with a high near 85. East wind 5 to 8 mph. Chance of precipitation is 30%. New rainfall amounts of less than a tenth of an inch, except higher amounts possible in thunderstorms.
Tonight
 
A chance of showers and thunderstorms, then showers and possibly a thunderstorm after 10pm. Some of the storms could produce heavy rain. Low around 69. East wind 8 to 13 mph. Chance of precipitation is 90%. New rainfall amounts between 1 and 2 inches possible.
Saturday
 
Rain. The rain could be heavy at times. High near 73. Northeast wind 15 to 18 mph. Chance of precipitation is 90%. New precipitation amounts between a half and three quarters of an inch possible.
Saturday Night
 
Rain likely before 8pm, then a chance of showers after 8pm. The rain could be heavy at times. Mostly cloudy, with a low around 63. Northeast wind 13 to 16 mph. Chance of precipitation is 60%. New precipitation amounts between a tenth and quarter of an inch possible.
Sunday
 
Partly sunny, with a high near 79. Northeast wind 11 to 14 mph.
Sunday Night
 
Mostly cloudy, with a low around 64.
Monday
 
Partly sunny, with a high near 81.
Monday Night
 
Partly cloudy, with a low around 66.
Tuesday
 
Mostly sunny, with a high near 86.
Tuesday Night
 
Partly cloudy, with a low around 70.
Wednesday
 
Mostly sunny, with a high near 88.
Wednesday Night
 
Partly cloudy, with a low around 72.
Thursday
 
Mostly sunny, with a high near 89.

 

Forecast from NOAA-NWS for Philadelphia PA.

Area Weather Current Conditions
Nearby METAR Reports

KPHL - Philadelphia, Pennsylvania
Updated: Fri, 28-Jul-2017 4:30am EDT
Mostly Cloudy
Mostly Cloudy
 Wind from E
Wind: E 7 mph , 11 km/h
Temperature: 72°F , 22°C
Dew Point: 70°F , 21°C
Humidity: 94%
Barometer: 29.84 inHg , 1010.5 hPa
Clouds: Mostly Cloudy
Visibility: 10 miles , 16 km
Cloud details: Partly Cloudy 900 ft
Mostly Cloudy 2000 ft
2017/07/28 08:30 KPHL 280830Z 08006KT 10SM SCT009 BKN020 22/21 A2984 RMK AO2 BKN V SCT T02220211 $
KMPO - Mt. Pocono, Pennsylvania
Updated: Fri, 28-Jul-2017 4:28am EDT
Mist, Overcast
Mist, Overcast
 Wind from calm
Wind: Calm
Temperature: 61°F , 16°C
Dew Point: 61°F , 16°C
Humidity: 100%
Barometer: 29.91 inHg , 1012.9 hPa
Summary: Mist
Clouds: Overcast
Visibility: 1 mile , 2 km
Cloud details: Overcast 200 ft
2017/07/28 08:28 KMPO 280828Z AUTO 00000KT 1SM BR VV002 16/16 A2991 RMK AO2 T01560156
 
KACY - Atlantic City, New Jersey
Updated: Fri, 28-Jul-2017 4:28am EDT
Mist, Overcast
Mist, Overcast
 Wind from calm
Wind: Calm
Temperature: 70°F , 21°C
Dew Point: 70°F , 21°C
Humidity: 100%
Barometer: 29.83 inHg , 1010.2 hPa
Summary: Mist
Clouds: Overcast
Visibility: 1 mile , 2 km
Cloud details: Overcast 400 ft
2017/07/28 08:28 KACY 280828Z 00000KT 1SM BR OVC004 21/21 A2983 RMK AO2 SFC VIS 2 1/2 VIS 1 1/4V5 T02060206
KMIV - Millville, New Jersey
Updated: Fri, 28-Jul-2017 4:16am EDT
Partly Cloudy
Partly Cloudy
 Wind from calm
Wind: Calm
Temperature: 70°F , 21°C
Dew Point: 70°F , 21°C
Humidity: 100%
Barometer: 29.82 inHg , 1009.8 hPa
Clouds: Partly Cloudy
Visibility: 7 miles , 11 km
Cloud details: Partly Cloudy 200 ft
2017/07/28 08:16 KMIV 280816Z AUTO 00000KT 7SM SCT002 21/21 A2982 RMK AO2 T02060206
 
KWWD - Wildwood, New Jersey
Updated: Fri, 28-Jul-2017 3:55am EDT
Few Clouds
Few Clouds
 Wind from calm
Wind: Calm
Temperature: 72°F , 22°C
Dew Point: 72°F , 22°C
Humidity: 100%
Barometer: 29.83 inHg , 1010.2 hPa
Clouds: Few Clouds
Visibility: 10 miles , 16 km
Cloud details: Few Clouds 10000 ft
2017/07/28 07:55 KWWD 280755Z AUTO 00000KT 10SM FEW100 22/22 A2983 RMK AO2 LTG DSNT SE SLP103 T02220217
KDOV - Dover Afb, Delaware
Updated: Fri, 28-Jul-2017 3:58am EDT
Clear
Clear
 Wind from N
Wind: N 3 mph , 6 km/h
Temperature: 70°F , 21°C
Dew Point: 70°F , 21°C
Humidity: 100%
Barometer: 29.81 inHg , 1009.5 hPa
Clouds: Clear
Visibility: 10 miles , 16 km
2017/07/28 07:58 KDOV 280758Z 01003KT 10SM CLR 21/21 A2981 RMK AO2A SLP098 $
Severe Weather Map
Recent Forum Post
[Philadelphia] Request for Philly Snow Data by JC February 14, 2017, 08:42:21 PM
[Philadelphia] 2016 -2017 Winter snow forecast by JC December 01, 2016, 04:56:31 AM
[Philadelphia] Winter forecast 2016-2017 by xyonist November 30, 2016, 01:14:08 PM
[Philadelphia] 102.7 last Saturday by JC August 20, 2016, 03:26:22 AM
[Philadelphia] 2015 -2016 Winter snow forecast by JC April 19, 2016, 09:42:40 AM
[Philadelphia] Latest Models on Weekend Storm (Photos) by JC January 23, 2016, 12:01:03 PM
[Philadelphia] Possible large snow storm for end of week ? by JC January 21, 2016, 09:17:47 AM
[Philadelphia] El Nino! by vicente6 September 16, 2015, 01:57:08 AM